sensor_id;sensor_type;location;lat;lon;timestamp;pressure;altitude;pressure_sealevel;temperature;humidity
25664;BME280;13522;50.018;20.014;2023-03-21T00:00:46;98767.35;;;9.97;100.00
25664;BME280;13522;50.018;20.014;2023-03-21T00:04:00;98771.11;;;9.95;100.00
25664;BME280;13522;50.018;20.014;2023-03-21T00:07:13;98776.41;;;9.95;100.00
25664;BME280;13522;50.018;20.014;2023-03-21T00:10:25;98769.71;;;9.91;100.00
25664;BME280;13522;50.018;20.014;2023-03-21T00:13:39;98772.11;;;9.94;100.00
25664;BME280;13522;50.018;20.014;2023-03-21T00:16:52;98772.80;;;9.96;100.00
25664;BME280;13522;50.018;20.014;2023-03-21T00:20:06;98770.41;;;9.93;100.00
25664;BME280;13522;50.018;20.014;2023-03-21T00:23:21;98768.90;;;9.90;100.00
25664;BME280;13522;50.018;20.014;2023-03-21T00:26:33;98764.55;;;9.89;100.00
25664;BME280;13522;50.018;20.014;2023-03-21T00:29:46;98759.66;;;9.85;100.00
25664;BME280;13522;50.018;20.014;2023-03-21T00:32:58;98758.00;;;9.84;100.00
25664;BME280;13522;50.018;20.014;2023-03-21T00:36:13;98763.30;;;9.84;100.00
25664;BME280;13522;50.018;20.014;2023-03-21T00:39:26;98760.91;;;9.81;100.00
25664;BME280;13522;50.018;20.014;2023-03-21T00:42:38;98755.61;;;9.81;100.00
25664;BME280;13522;50.018;20.014;2023-03-21T00:45:51;98758.26;;;9.81;100.00
25664;BME280;13522;50.018;20.014;2023-03-21T00:49:03;98762.86;;;9.79;100.00
25664;BME280;13522;50.018;20.014;2023-03-21T00:52:15;98753.65;;;9.83;100.00
25664;BME280;13522;50.018;20.014;2023-03-21T00:55:29;98754.64;;;9.82;100.00
25664;BME280;13522;50.018;20.014;2023-03-21T00:58:43;98751.99;;;9.82;100.00
25664;BME280;13522;50.018;20.014;2023-03-21T01:01:56;98758.95;;;9.83;100.00
25664;BME280;13522;50.018;20.014;2023-03-21T01:05:12;98743.05;;;9.83;100.00
25664;BME280;13522;50.018;20.014;2023-03-21T01:08:26;98745.98;;;9.80;100.00
25664;BME280;13522;50.018;20.014;2023-03-21T01:11:41;98741.53;;;9.80;100.00
25664;BME280;13522;50.018;20.014;2023-03-21T01:14:53;98730.48;;;9.66;100.00
25664;BME280;13522;50.018;20.014;2023-03-21T01:18:05;98743.19;;;9.72;100.00
25664;BME280;13522;50.018;20.014;2023-03-21T01:21:19;98743.05;;;9.73;100.00
25664;BME280;13522;50.018;20.014;2023-03-21T01:24:31;98721.82;;;9.54;100.00
25664;BME280;13522;50.018;20.014;2023-03-21T01:27:45;98745.28;;;9.68;100.00
25664;BME280;13522;50.018;20.014;2023-03-21T01:31:01;98743.59;;;9.67;100.00
25664;BME280;13522;50.018;20.014;2023-03-21T01:34:14;98753.35;;;9.67;100.00
25664;BME280;13522;50.018;20.014;2023-03-21T01:37:26;98750.44;;;9.70;100.00
25664;BME280;13522;50.018;20.014;2023-03-21T01:40:39;98748.89;;;9.67;100.00
25664;BME280;13522;50.018;20.014;2023-03-21T01:43:54;98753.09;;;9.70;100.00
25664;BME280;13522;50.018;20.014;2023-03-21T01:47:09;98753.94;;;9.70;100.00
25664;BME280;13522;50.018;20.014;2023-03-21T01:50:20;98751.98;;;9.72;100.00
25664;BME280;13522;50.018;20.014;2023-03-21T01:53:52;98756.86;;;9.77;100.00
25664;BME280;13522;50.018;20.014;2023-03-21T01:57:11;98753.09;;;9.79;100.00
25664;BME280;13522;50.018;20.014;2023-03-21T02:00:28;98750.30;;;9.81;100.00
25664;BME280;13522;50.018;20.014;2023-03-21T02:03:45;98749.19;;;9.83;100.00
25664;BME280;13522;50.018;20.014;2023-03-21T02:07:23;98739.14;;;9.87;100.00
25664;BME280;13522;50.018;20.014;2023-03-21T02:10:38;98747.09;;;9.87;100.00
25664;BME280;13522;50.018;20.014;2023-03-21T02:13:57;98755.05;;;9.87;100.00
25664;BME280;13522;50.018;20.014;2023-03-21T02:17:17;98744.18;;;9.90;100.00
25664;BME280;13522;50.018;20.014;2023-03-21T02:21:02;98738.44;;;9.85;100.00
25664;BME280;13522;50.018;20.014;2023-03-21T02:24:37;98738.03;;;9.80;100.00
25664;BME280;13522;50.018;20.014;2023-03-21T02:28:09;98741.38;;;9.82;100.00
25664;BME280;13522;50.018;20.014;2023-03-21T02:31:36;98741.53;;;9.80;100.00
25664;BME280;13522;50.018;20.014;2023-03-21T02:35:05;98746.39;;;9.85;100.00
25664;BME280;13522;50.018;20.014;2023-03-21T02:38:26;98741.23;;;9.83;100.00
25664;BME280;13522;50.018;20.014;2023-03-21T02:41:46;98741.23;;;9.83;100.00
25664;BME280;13522;50.018;20.014;2023-03-21T02:45:12;98739.14;;;9.77;100.00
25664;BME280;13522;50.018;20.014;2023-03-21T02:48:30;98741.79;;;9.77;100.00
25664;BME280;13522;50.018;20.014;2023-03-21T02:51:47;98740.53;;;9.72;100.00
25664;BME280;13522;50.018;20.014;2023-03-21T02:55:04;98743.19;;;9.72;100.00
25664;BME280;13522;50.018;20.014;2023-03-21T02:58:26;98741.78;;;9.68;100.00
25664;BME280;13522;50.018;20.014;2023-03-21T03:01:41;98743.73;;;9.66;100.00
25664;BME280;13522;50.018;20.014;2023-03-21T03:04:54;98736.33;;;9.59;100.00
25664;BME280;13522;50.018;20.014;2023-03-21T03:08:18;98742.73;;;9.57;100.00
25664;BME280;13522;50.018;20.014;2023-03-21T03:11:41;98740.23;;;9.55;100.00
25664;BME280;13522;50.018;20.014;2023-03-21T03:14:58;98741.34;;;9.53;100.00
25664;BME280;13522;50.018;20.014;2023-03-21T03:18:18;98741.77;;;9.48;100.00
25664;BME280;13522;50.018;20.014;2023-03-21T03:21:37;98742.17;;;9.44;100.00
25664;BME280;13522;50.018;20.014;2023-03-21T03:24:58;98739.22;;;9.37;100.00
25664;BME280;13522;50.018;20.014;2023-03-21T03:28:19;98741.45;;;9.32;100.00
25664;BME280;13522;50.018;20.014;2023-03-21T03:31:35;98747.71;;;9.31;100.00
25664;BME280;13522;50.018;20.014;2023-03-21T03:34:52;98739.06;;;9.29;100.00
25664;BME280;13522;50.018;20.014;2023-03-21T03:38:05;98744.36;;;9.29;100.00
25664;BME280;13522;50.018;20.014;2023-03-21T03:41:22;98745.05;;;9.22;100.00
25664;BME280;13522;50.018;20.014;2023-03-21T03:44:39;98738.90;;;9.21;100.00
25664;BME280;13522;50.018;20.014;2023-03-21T03:47:56;98739.59;;;9.23;100.00
25664;BME280;13522;50.018;20.014;2023-03-21T03:51:16;98743.23;;;9.22;100.00
25664;BME280;13522;50.018;20.014;2023-03-21T03:54:41;98741.30;;;9.24;100.00
25664;BME280;13522;50.018;20.014;2023-03-21T03:57:56;98746.03;;;9.21;100.00
25664;BME280;13522;50.018;20.014;2023-03-21T04:01:10;98744.20;;;9.21;100.00
25664;BME280;13522;50.018;20.014;2023-03-21T04:04:22;98738.73;;;9.13;100.00
25664;BME280;13522;50.018;20.014;2023-03-21T04:07:36;98747.38;;;9.15;100.00
25664;BME280;13522;50.018;20.014;2023-03-21T04:10:49;98758.27;;;9.12;100.00
25664;BME280;13522;50.018;20.014;2023-03-21T04:14:01;98753.81;;;9.13;100.00
25664;BME280;13522;50.018;20.014;2023-03-21T04:17:14;98751.27;;;9.11;100.00
25664;BME280;13522;50.018;20.014;2023-03-21T04:20:27;98749.61;;;9.10;100.00
25664;BME280;13522;50.018;20.014;2023-03-21T04:23:42;98753.92;;;9.11;100.00
25664;BME280;13522;50.018;20.014;2023-03-21T04:26:54;98744.31;;;9.10;100.00
25664;BME280;13522;50.018;20.014;2023-03-21T04:30:16;98741.10;;;9.07;100.00
25664;BME280;13522;50.018;20.014;2023-03-21T04:33:32;98744.31;;;9.10;100.00
25664;BME280;13522;50.018;20.014;2023-03-21T04:36:45;98746.12;;;9.10;100.00
25664;BME280;13522;50.018;20.014;2023-03-21T04:39:59;98748.20;;;9.06;100.00
25664;BME280;13522;50.018;20.014;2023-03-21T04:43:13;98745.95;;;9.02;100.00
25664;BME280;13522;50.018;20.014;2023-03-21T04:46:26;98736.73;;;8.96;100.00
25664;BME280;13522;50.018;20.014;2023-03-21T04:49:39;98738.84;;;9.02;100.00
25664;BME280;13522;50.018;20.014;2023-03-21T04:52:52;98746.51;;;9.05;100.00
25664;BME280;13522;50.018;20.014;2023-03-21T04:56:06;98755.73;;;9.01;100.00
25664;BME280;13522;50.018;20.014;2023-03-21T04:59:19;98751.53;;;8.99;100.00
25664;BME280;13522;50.018;20.014;2023-03-21T05:02:31;98755.45;;;9.04;100.00
25664;BME280;13522;50.018;20.014;2023-03-21T05:05:44;98761.31;;;9.08;100.00
25664;BME280;13522;50.018;20.014;2023-03-21T05:08:59;98755.76;;;9.11;100.00
25664;BME280;13522;50.018;20.014;2023-03-21T05:12:13;98761.05;;;9.11;100.00
25664;BME280;13522;50.018;20.014;2023-03-21T05:15:26;98753.22;;;9.09;100.00
25664;BME280;13522;50.018;20.014;2023-03-21T05:18:38;98759.65;;;9.07;100.00
25664;BME280;13522;50.018;20.014;2023-03-21T05:21:52;98757.11;;;9.05;100.00
25664;BME280;13522;50.018;20.014;2023-03-21T05:25:06;98762.16;;;9.08;100.00
25664;BME280;13522;50.018;20.014;2023-03-21T05:28:37;98758.27;;;9.12;100.00
25664;BME280;13522;50.018;20.014;2023-03-21T05:31:50;98758.52;;;9.09;100.00
25664;BME280;13522;50.018;20.014;2023-03-21T05:35:03;98766.36;;;9.11;100.00
25664;BME280;13522;50.018;20.014;2023-03-21T05:38:16;98771.77;;;9.09;100.00
25664;BME280;13522;50.018;20.014;2023-03-21T05:41:29;98775.12;;;9.11;100.00
25664;BME280;13522;50.018;20.014;2023-03-21T05:44:42;98781.13;;;9.13;100.00
25664;BME280;13522;50.018;20.014;2023-03-21T05:47:57;98780.41;;;9.11;100.00
25664;BME280;13522;50.018;20.014;2023-03-21T05:51:11;98779.31;;;9.14;100.00
25664;BME280;13522;50.018;20.014;2023-03-21T05:54:23;98785.47;;;9.14;100.00
25664;BME280;13522;50.018;20.014;2023-03-21T05:57:36;98784.37;;;9.17;100.00
25664;BME280;13522;50.018;20.014;2023-03-21T06:00:50;98792.31;;;9.17;100.00
25664;BME280;13522;50.018;20.014;2023-03-21T06:04:04;98793.59;;;9.22;100.00
25664;BME280;13522;50.018;20.014;2023-03-21T06:07:17;98791.78;;;9.23;100.00
25664;BME280;13522;50.018;20.014;2023-03-21T06:10:30;98789.70;;;9.26;100.00
25664;BME280;13522;50.018;20.014;2023-03-21T06:13:42;98786.76;;;9.29;100.00
25664;BME280;13522;50.018;20.014;2023-03-21T06:16:55;98792.06;;;9.29;100.00
25664;BME280;13522;50.018;20.014;2023-03-21T06:20:10;98790.94;;;9.22;100.00
25664;BME280;13522;50.018;20.014;2023-03-21T06:23:23;98795.95;;;9.25;100.00
25664;BME280;13522;50.018;20.014;2023-03-21T06:26:36;98788.45;;;9.30;100.00
25664;BME280;13522;50.018;20.014;2023-03-21T06:29:48;98790.40;;;9.28;100.00
25664;BME280;13522;50.018;20.014;2023-03-21T06:33:04;98788.17;;;9.33;100.00
25664;BME280;13522;50.018;20.014;2023-03-21T06:36:17;98790.28;;;9.39;100.00
25664;BME280;13522;50.018;20.014;2023-03-21T06:39:30;98795.58;;;9.39;100.00
25664;BME280;13522;50.018;20.014;2023-03-21T06:42:42;98797.69;;;9.45;100.00
25664;BME280;13522;50.018;20.014;2023-03-21T06:45:54;98796.05;;;9.54;100.00
25664;BME280;13522;50.018;20.014;2023-03-21T06:49:07;98793.96;;;9.57;100.00
25664;BME280;13522;50.018;20.014;2023-03-21T06:52:19;98801.21;;;9.55;100.00
25664;BME280;13522;50.018;20.014;2023-03-21T06:55:31;98804.56;;;9.57;100.00
25664;BME280;13522;50.018;20.014;2023-03-21T06:58:44;98801.50;;;9.52;100.00
25664;BME280;13522;50.018;20.014;2023-03-21T07:01:58;98806.82;;;9.62;100.00
25664;BME280;13522;50.018;20.014;2023-03-21T07:05:14;98802.36;;;9.63;100.00
25664;BME280;13522;50.018;20.014;2023-03-21T07:08:26;98805.72;;;9.65;100.00
25664;BME280;13522;50.018;20.014;2023-03-21T07:11:38;98800.41;;;9.65;100.00
25664;BME280;13522;50.018;20.014;2023-03-21T07:14:52;98802.36;;;9.63;100.00
25664;BME280;13522;50.018;20.014;2023-03-21T07:18:05;98802.23;;;9.74;100.00
25664;BME280;13522;50.018;20.014;2023-03-21T07:21:18;98800.83;;;9.70;100.00
25664;BME280;13522;50.018;20.014;2023-03-21T07:24:31;98792.33;;;9.76;100.00
25664;BME280;13522;50.018;20.014;2023-03-21T07:27:43;98796.64;;;9.77;100.00
25664;BME280;13522;50.018;20.014;2023-03-21T07:30:57;98787.88;;;9.95;100.00
25664;BME280;13522;50.018;20.014;2023-03-21T07:34:10;98786.64;;;10.18;100.00
25664;BME280;13522;50.018;20.014;2023-03-21T07:37:24;98781.76;;;10.33;100.00
25664;BME280;13522;50.018;20.014;2023-03-21T07:40:37;98776.84;;;10.57;100.00
25664;BME280;13522;50.018;20.014;2023-03-21T07:43:49;98778.23;;;10.61;100.00
25664;BME280;13522;50.018;20.014;2023-03-21T07:47:04;98791.99;;;10.84;100.00
25664;BME280;13522;50.018;20.014;2023-03-21T07:50:17;98778.57;;;11.22;100.00
25664;BME280;13522;50.018;20.014;2023-03-21T07:53:30;98785.26;;;11.53;100.00
25664;BME280;13522;50.018;20.014;2023-03-21T07:56:44;98781.53;;;11.46;100.00
25664;BME280;13522;50.018;20.014;2023-03-21T07:59:56;98791.08;;;11.39;100.00
25664;BME280;13522;50.018;20.014;2023-03-21T08:03:11;98782.51;;;11.18;100.00
25664;BME280;13522;50.018;20.014;2023-03-21T08:06:27;98783.89;;;11.22;100.00
25664;BME280;13522;50.018;20.014;2023-03-21T08:09:41;98789.20;;;11.22;100.00
25664;BME280;13522;50.018;20.014;2023-03-21T08:12:54;98786.81;;;11.28;100.00
25664;BME280;13522;50.018;20.014;2023-03-21T08:16:08;98782.63;;;11.80;100.00
25664;BME280;13522;50.018;20.014;2023-03-21T08:19:20;98776.89;;;12.28;100.00
25664;BME280;13522;50.018;20.014;2023-03-21T08:22:32;98786.64;;;12.37;99.22
25664;BME280;13522;50.018;20.014;2023-03-21T08:25:45;98778.33;;;12.40;98.50
25664;BME280;13522;50.018;20.014;2023-03-21T08:28:59;98788.63;;;12.35;98.63
25664;BME280;13522;50.018;20.014;2023-03-21T08:32:12;98786.67;;;12.02;98.44
25664;BME280;13522;50.018;20.014;2023-03-21T08:35:26;98789.38;;;11.92;98.95
25664;BME280;13522;50.018;20.014;2023-03-21T08:38:39;98784.69;;;11.86;100.00
25664;BME280;13522;50.018;20.014;2023-03-21T08:41:53;98796.69;;;11.63;100.00
25664;BME280;13522;50.018;20.014;2023-03-21T08:45:08;98805.63;;;11.45;100.00
25664;BME280;13522;50.018;20.014;2023-03-21T08:48:21;98800.80;;;11.30;100.00
25664;BME280;13522;50.018;20.014;2023-03-21T08:51:33;98806.23;;;11.29;100.00
25664;BME280;13522;50.018;20.014;2023-03-21T08:54:48;98811.09;;;11.06;100.00
25664;BME280;13522;50.018;20.014;2023-03-21T08:58:00;98812.25;;;10.94;100.00
25664;BME280;13522;50.018;20.014;2023-03-21T09:01:13;98816.98;;;11.00;100.00
25664;BME280;13522;50.018;20.014;2023-03-21T09:04:25;98820.61;;;11.09;100.00
25664;BME280;13522;50.018;20.014;2023-03-21T09:07:38;98817.26;;;11.07;100.00
25664;BME280;13522;50.018;20.014;2023-03-21T09:10:53;98818.30;;;11.23;100.00
25664;BME280;13522;50.018;20.014;2023-03-21T09:14:05;98818.08;;;11.44;100.00
25664;BME280;13522;50.018;20.014;2023-03-21T09:17:18;98817.43;;;11.60;100.00
25664;BME280;13522;50.018;20.014;2023-03-21T09:20:30;98817.00;;;11.64;100.00
25664;BME280;13522;50.018;20.014;2023-03-21T09:23:43;98816.91;;;11.83;100.00
25664;BME280;13522;50.018;20.014;2023-03-21T09:26:57;98816.55;;;12.31;100.00
25664;BME280;13522;50.018;20.014;2023-03-21T09:30:12;98823.45;;;12.24;100.00
25664;BME280;13522;50.018;20.014;2023-03-21T09:33:26;98817.32;;;12.24;100.00
25664;BME280;13522;50.018;20.014;2023-03-21T09:36:40;98817.00;;;12.09;100.00
25664;BME280;13522;50.018;20.014;2023-03-21T09:39:53;98819.13;;;11.88;100.00
25664;BME280;13522;50.018;20.014;2023-03-21T09:43:12;98820.78;;;11.89;100.00
25664;BME280;13522;50.018;20.014;2023-03-21T09:46:33;98825.22;;;11.98;100.00
25664;BME280;13522;50.018;20.014;2023-03-21T09:49:51;98815.46;;;11.89;100.00
25664;BME280;13522;50.018;20.014;2023-03-21T09:53:10;98816.67;;;11.94;100.00
25664;BME280;13522;50.018;20.014;2023-03-21T09:56:26;98823.00;;;11.93;100.00
25664;BME280;13522;50.018;20.014;2023-03-21T09:59:39;98825.70;;;11.66;100.00
25664;BME280;13522;50.018;20.014;2023-03-21T10:02:53;98820.31;;;11.76;100.00
25664;BME280;13522;50.018;20.014;2023-03-21T10:06:10;98814.47;;;11.72;100.00
25664;BME280;13522;50.018;20.014;2023-03-21T10:09:27;98812.02;;;11.52;100.00
25664;BME280;13522;50.018;20.014;2023-03-21T10:12:46;98816.72;;;11.67;100.00
25664;BME280;13522;50.018;20.014;2023-03-21T10:16:05;98820.31;;;11.76;100.00
25664;BME280;13522;50.018;20.014;2023-03-21T10:19:20;98825.41;;;11.60;100.00
25664;BME280;13522;50.018;20.014;2023-03-21T10:22:32;98823.19;;;11.55;100.00
25664;BME280;13522;50.018;20.014;2023-03-21T10:25:47;98821.47;;;11.64;100.00
25664;BME280;13522;50.018;20.014;2023-03-21T10:29:03;98823.82;;;11.76;100.00
25664;BME280;13522;50.018;20.014;2023-03-21T10:32:18;98822.38;;;11.82;100.00
25664;BME280;13522;50.018;20.014;2023-03-21T10:35:30;98816.81;;;11.75;100.00
25664;BME280;13522;50.018;20.014;2023-03-21T10:38:46;98822.57;;;11.71;100.00
25664;BME280;13522;50.018;20.014;2023-03-21T10:42:01;98819.53;;;11.66;100.00
25664;BME280;13522;50.018;20.014;2023-03-21T10:45:17;98822.57;;;11.71;100.00
25664;BME280;13522;50.018;20.014;2023-03-21T10:48:35;98820.63;;;11.63;100.00
25664;BME280;13522;50.018;20.014;2023-03-21T10:51:54;98817.43;;;11.60;100.00
25664;BME280;13522;50.018;20.014;2023-03-21T10:55:11;98821.75;;;11.61;100.00
25664;BME280;13522;50.018;20.014;2023-03-21T10:58:33;98816.97;;;11.74;100.00
25664;BME280;13522;50.018;20.014;2023-03-21T11:01:50;98819.22;;;11.69;100.00
25664;BME280;13522;50.018;20.014;2023-03-21T11:05:12;98815.28;;;11.73;100.00
25664;BME280;13522;50.018;20.014;2023-03-21T11:08:27;98817.81;;;11.74;100.00
25664;BME280;13522;50.018;20.014;2023-03-21T11:11:50;98811.64;;;11.74;100.00
25664;BME280;13522;50.018;20.014;2023-03-21T11:15:24;98817.59;;;11.85;99.85
25664;BME280;13522;50.018;20.014;2023-03-21T11:18:43;98819.13;;;11.88;98.25
25664;BME280;13522;50.018;20.014;2023-03-21T11:22:02;98818.65;;;11.92;96.88
25664;BME280;13522;50.018;20.014;2023-03-21T11:25:21;98816.75;;;11.85;97.85
25664;BME280;13522;50.018;20.014;2023-03-21T11:28:39;98817.22;;;11.80;96.07
25664;BME280;13522;50.018;20.014;2023-03-21T11:31:53;98818.63;;;11.75;97.57
25664;BME280;13522;50.018;20.014;2023-03-21T11:35:17;98817.15;;;11.90;98.92
25664;BME280;13522;50.018;20.014;2023-03-21T11:38:35;98809.09;;;11.99;97.39
25664;BME280;13522;50.018;20.014;2023-03-21T11:41:50;98804.54;;;12.09;97.32
25664;BME280;13522;50.018;20.014;2023-03-21T11:45:09;98803.61;;;12.01;96.69
25664;BME280;13522;50.018;20.014;2023-03-21T11:48:23;98797.44;;;12.00;98.08
25664;BME280;13522;50.018;20.014;2023-03-21T11:51:38;98797.14;;;11.86;97.30
25664;BME280;13522;50.018;20.014;2023-03-21T11:55:08;98798.73;;;11.96;97.43
25664;BME280;13522;50.018;20.014;2023-03-21T11:58:42;98806.26;;;11.83;96.94
25664;BME280;13522;50.018;20.014;2023-03-21T12:02:14;98798.50;;;11.72;97.86
25664;BME280;13522;50.018;20.014;2023-03-21T12:05:53;98795.44;;;11.67;96.95
25664;BME280;13522;50.018;20.014;2023-03-21T12:09:18;98798.25;;;11.66;97.16
25664;BME280;13522;50.018;20.014;2023-03-21T12:12:45;98790.45;;;11.55;98.73
25664;BME280;13522;50.018;20.014;2023-03-21T12:16:06;98790.83;;;11.60;97.85
25664;BME280;13522;50.018;20.014;2023-03-21T12:23:38;98796.31;;;11.58;99.22
25664;BME280;13522;50.018;20.014;2023-03-21T12:27:07;98782.60;;;11.53;96.19
25664;BME280;13522;50.018;20.014;2023-03-21T12:30:32;98785.67;;;11.58;96.71
25664;BME280;13522;50.018;20.014;2023-03-21T12:34:00;98784.23;;;11.64;96.60
25664;BME280;13522;50.018;20.014;2023-03-21T12:37:18;98779.19;;;11.70;98.46
25664;BME280;13522;50.018;20.014;2023-03-21T12:40:50;98784.97;;;11.83;98.99
25664;BME280;13522;50.018;20.014;2023-03-21T12:44:11;98778.80;;;11.83;97.77
25664;BME280;13522;50.018;20.014;2023-03-21T12:47:23;98776.55;;;11.88;98.03
25664;BME280;13522;50.018;20.014;2023-03-21T12:50:38;98773.36;;;11.84;97.93
25664;BME280;13522;50.018;20.014;2023-03-21T12:53:58;98774.86;;;11.87;96.60
25664;BME280;13522;50.018;20.014;2023-03-21T12:57:16;98771.50;;;11.85;97.24
25664;BME280;13522;50.018;20.014;2023-03-21T13:00:34;98769.32;;;11.80;96.98
25664;BME280;13522;50.018;20.014;2023-03-21T13:03:53;98773.88;;;11.61;97.07
25664;BME280;13522;50.018;20.014;2023-03-21T13:07:11;98769.08;;;11.47;97.49
25664;BME280;13522;50.018;20.014;2023-03-21T13:10:26;98768.39;;;11.45;96.86
25664;BME280;13522;50.018;20.014;2023-03-21T13:13:42;98770.64;;;11.40;99.22
25664;BME280;13522;50.018;20.014;2023-03-21T13:16:59;98772.52;;;11.29;100.00
25664;BME280;13522;50.018;20.014;2023-03-21T13:20:20;98775.42;;;11.36;100.00
25664;BME280;13522;50.018;20.014;2023-03-21T13:23:38;98771.23;;;11.33;100.00
25664;BME280;13522;50.018;20.014;2023-03-21T13:26:54;98772.92;;;11.34;100.00
25664;BME280;13522;50.018;20.014;2023-03-21T13:30:19;98768.20;;;11.28;100.00
25664;BME280;13522;50.018;20.014;2023-03-21T13:33:34;98765.92;;;11.33;100.00
25664;BME280;13522;50.018;20.014;2023-03-21T13:36:49;98767.61;;;11.34;100.00
25664;BME280;13522;50.018;20.014;2023-03-21T13:40:06;98771.77;;;11.37;100.00
25664;BME280;13522;50.018;20.014;2023-03-21T13:43:40;98765.33;;;11.40;100.00
25664;BME280;13522;50.018;20.014;2023-03-21T13:47:00;98759.85;;;11.41;100.00
25664;BME280;13522;50.018;20.014;2023-03-21T13:50:32;98757.44;;;11.48;100.00
25664;BME280;13522;50.018;20.014;2023-03-21T13:53:54;98761.11;;;11.47;100.00
25664;BME280;13522;50.018;20.014;2023-03-21T13:57:34;98758.66;;;11.53;100.00
25664;BME280;13522;50.018;20.014;2023-03-21T14:01:08;98760.52;;;11.53;100.00
25664;BME280;13522;50.018;20.014;2023-03-21T14:04:28;98750.91;;;11.42;100.00
25664;BME280;13522;50.018;20.014;2023-03-21T14:07:46;98746.87;;;11.38;100.00
25664;BME280;13522;50.018;20.014;2023-03-21T14:11:05;98753.91;;;11.29;100.00
25664;BME280;13522;50.018;20.014;2023-03-21T14:14:22;98755.55;;;11.13;100.00
25664;BME280;13522;50.018;20.014;2023-03-21T14:17:36;98759.27;;;11.20;100.00
25664;BME280;13522;50.018;20.014;2023-03-21T14:20:54;98754.80;;;11.20;100.00
25664;BME280;13522;50.018;20.014;2023-03-21T14:24:13;98759.91;;;11.04;100.00
25664;BME280;13522;50.018;20.014;2023-03-21T14:27:30;98766.00;;;10.87;100.00
25664;BME280;13522;50.018;20.014;2023-03-21T14:30:44;98765.30;;;10.85;100.00
25664;BME280;13522;50.018;20.014;2023-03-21T14:34:02;98769.23;;;10.72;100.00
25664;BME280;13522;50.018;20.014;2023-03-21T14:37:27;98777.23;;;10.62;100.00
25664;BME280;13522;50.018;20.014;2023-03-21T14:40:46;98775.30;;;10.55;100.00
25664;BME280;13522;50.018;20.014;2023-03-21T14:44:13;98772.94;;;10.52;100.00
25664;BME280;13522;50.018;20.014;2023-03-21T14:47:31;98770.01;;;10.45;100.00
25664;BME280;13522;50.018;20.014;2023-03-21T14:50:47;98774.47;;;10.44;100.00
25664;BME280;13522;50.018;20.014;2023-03-21T14:54:01;98772.66;;;10.45;100.00
25664;BME280;13522;50.018;20.014;2023-03-21T14:57:18;98768.45;;;10.52;100.00
25664;BME280;13522;50.018;20.014;2023-03-21T15:00:31;98765.22;;;10.58;100.00
25664;BME280;13522;50.018;20.014;2023-03-21T15:03:46;98765.91;;;10.60;100.00
25664;BME280;13522;50.018;20.014;2023-03-21T15:07:01;98765.37;;;10.57;100.00
25664;BME280;13522;50.018;20.014;2023-03-21T15:10:16;98764.52;;;10.56;100.00
25664;BME280;13522;50.018;20.014;2023-03-21T15:13:30;98767.88;;;10.58;100.00
25664;BME280;13522;50.018;20.014;2023-03-21T15:16:44;98758.64;;;10.62;100.00
25664;BME280;13522;50.018;20.014;2023-03-21T15:19:57;98764.77;;;10.72;100.00
25664;BME280;13522;50.018;20.014;2023-03-21T15:23:24;98748.67;;;10.74;100.00
25664;BME280;13522;50.018;20.014;2023-03-21T15:26:30;98750.79;;;10.70;100.00
25664;BME280;13522;50.018;20.014;2023-03-21T15:29:43;98749.02;;;10.61;100.00
25664;BME280;13522;50.018;20.014;2023-03-21T15:32:57;98747.63;;;10.57;100.00
25664;BME280;13522;50.018;20.014;2023-03-21T15:36:16;98754.59;;;10.58;100.00
25664;BME280;13522;50.018;20.014;2023-03-21T15:39:31;98762.02;;;10.55;100.00
25664;BME280;13522;50.018;20.014;2023-03-21T15:42:44;98763.70;;;10.56;100.00
25664;BME280;13522;50.018;20.014;2023-03-21T15:45:56;98758.97;;;10.50;100.00
25664;BME280;13522;50.018;20.014;2023-03-21T15:49:16;98761.20;;;10.44;100.00
25664;BME280;13522;50.018;20.014;2023-03-21T15:52:32;98761.50;;;10.41;100.00
25664;BME280;13522;50.018;20.014;2023-03-21T15:55:48;98752.69;;;10.41;100.00
25664;BME280;13522;50.018;20.014;2023-03-21T15:59:01;98757.30;;;10.39;100.00
25664;BME280;13522;50.018;20.014;2023-03-21T16:02:18;98761.61;;;10.40;100.00
25664;BME280;13522;50.018;20.014;2023-03-21T16:05:33;98761.91;;;10.37;100.00
25664;BME280;13522;50.018;20.014;2023-03-21T16:08:46;98756.05;;;10.33;100.00
25664;BME280;13522;50.018;20.014;2023-03-21T16:12:00;98757.31;;;10.29;100.00
25664;BME280;13522;50.018;20.014;2023-03-21T16:15:12;98761.93;;;10.27;100.00
25664;BME280;13522;50.018;20.014;2023-03-21T16:18:25;98767.50;;;10.24;100.00
25664;BME280;13522;50.018;20.014;2023-03-21T16:21:39;98765.84;;;10.23;100.00
25664;BME280;13522;50.018;20.014;2023-03-21T16:24:52;98761.09;;;10.17;100.00
25664;BME280;13522;50.018;20.014;2023-03-21T16:28:05;98767.11;;;10.19;100.00
25664;BME280;13522;50.018;20.014;2023-03-21T16:31:22;98763.75;;;10.17;100.00
25664;BME280;13522;50.018;20.014;2023-03-21T16:34:35;98768.22;;;10.17;100.00
25664;BME280;13522;50.018;20.014;2023-03-21T16:37:48;98765.39;;;10.09;100.00
25664;BME280;13522;50.018;20.014;2023-03-21T16:41:00;98771.25;;;10.03;100.00
25664;BME280;13522;50.018;20.014;2023-03-21T16:44:12;98780.32;;;10.00;100.00
25664;BME280;13522;50.018;20.014;2023-03-21T16:47:25;98771.81;;;9.97;100.00
25664;BME280;13522;50.018;20.014;2023-03-21T16:50:40;98770.55;;;10.01;100.00
25664;BME280;13522;50.018;20.014;2023-03-21T16:53:56;98782.02;;;10.01;100.00
25664;BME280;13522;50.018;20.014;2023-03-21T16:57:15;98783.13;;;9.99;100.00
25664;BME280;13522;50.018;20.014;2023-03-21T17:00:31;98779.07;;;9.95;100.00
25664;BME280;13522;50.018;20.014;2023-03-21T17:03:45;98777.27;;;9.86;100.00